sensor_id;sensor_type;location;lat;lon;timestamp;temperature;humidity
4647;DHT22;2336;47.822;7.564;2022-08-21T00:01:44;16.70;99.90
4647;DHT22;2336;47.822;7.564;2022-08-21T00:04:11;16.70;99.90
4647;DHT22;2336;47.822;7.564;2022-08-21T00:06:38;16.70;99.90
4647;DHT22;2336;47.822;7.564;2022-08-21T00:09:07;16.80;99.90
4647;DHT22;2336;47.822;7.564;2022-08-21T00:11:34;16.80;99.90
4647;DHT22;2336;47.822;7.564;2022-08-21T00:14:04;16.90;99.90
4647;DHT22;2336;47.822;7.564;2022-08-21T00:16:31;16.80;99.90
4647;DHT22;2336;47.822;7.564;2022-08-21T00:18:58;16.80;99.90
4647;DHT22;2336;47.822;7.564;2022-08-21T00:21:25;16.90;99.90
4647;DHT22;2336;47.822;7.564;2022-08-21T00:23:52;16.90;99.90
4647;DHT22;2336;47.822;7.564;2022-08-21T00:26:19;16.90;99.90
4647;DHT22;2336;47.822;7.564;2022-08-21T00:28:46;16.90;99.90
4647;DHT22;2336;47.822;7.564;2022-08-21T00:31:15;16.90;99.90
4647;DHT22;2336;47.822;7.564;2022-08-21T00:33:43;16.90;99.90
4647;DHT22;2336;47.822;7.564;2022-08-21T00:36:10;16.80;99.90
4647;DHT22;2336;47.822;7.564;2022-08-21T00:38:37;16.80;99.90
4647;DHT22;2336;47.822;7.564;2022-08-21T00:41:06;16.80;99.90
4647;DHT22;2336;47.822;7.564;2022-08-21T00:43:35;16.70;99.90
4647;DHT22;2336;47.822;7.564;2022-08-21T00:46:03;16.70;99.90
4647;DHT22;2336;47.822;7.564;2022-08-21T00:48:32;16.60;99.90
4647;DHT22;2336;47.822;7.564;2022-08-21T00:51:04;16.60;99.90
4647;DHT22;2336;47.822;7.564;2022-08-21T00:53:31;16.50;99.90
4647;DHT22;2336;47.822;7.564;2022-08-21T00:55:59;16.50;99.90
4647;DHT22;2336;47.822;7.564;2022-08-21T00:58:29;16.50;99.90
4647;DHT22;2336;47.822;7.564;2022-08-21T01:00:57;16.50;99.90
4647;DHT22;2336;47.822;7.564;2022-08-21T01:03:26;16.50;99.90
4647;DHT22;2336;47.822;7.564;2022-08-21T01:05:54;16.50;99.90
4647;DHT22;2336;47.822;7.564;2022-08-21T01:08:21;16.50;99.90
4647;DHT22;2336;47.822;7.564;2022-08-21T01:10:49;16.50;99.90
4647;DHT22;2336;47.822;7.564;2022-08-21T01:13:17;16.50;99.90
4647;DHT22;2336;47.822;7.564;2022-08-21T01:15:46;16.60;99.90
4647;DHT22;2336;47.822;7.564;2022-08-21T01:18:15;16.60;99.90
4647;DHT22;2336;47.822;7.564;2022-08-21T01:20:45;16.60;99.90
4647;DHT22;2336;47.822;7.564;2022-08-21T01:23:13;16.60;99.90
4647;DHT22;2336;47.822;7.564;2022-08-21T01:25:40;16.60;99.90
4647;DHT22;2336;47.822;7.564;2022-08-21T01:28:11;16.60;99.90
4647;DHT22;2336;47.822;7.564;2022-08-21T01:30:39;16.50;99.90
4647;DHT22;2336;47.822;7.564;2022-08-21T01:33:06;16.50;99.90
4647;DHT22;2336;47.822;7.564;2022-08-21T01:35:32;16.40;99.90
4647;DHT22;2336;47.822;7.564;2022-08-21T01:37:59;16.40;99.90
4647;DHT22;2336;47.822;7.564;2022-08-21T01:40:28;16.30;99.90
4647;DHT22;2336;47.822;7.564;2022-08-21T01:42:55;16.30;99.90
4647;DHT22;2336;47.822;7.564;2022-08-21T01:45:21;16.30;99.90
4647;DHT22;2336;47.822;7.564;2022-08-21T01:47:48;16.20;99.90
4647;DHT22;2336;47.822;7.564;2022-08-21T01:50:17;16.20;99.90
4647;DHT22;2336;47.822;7.564;2022-08-21T01:52:44;16.20;99.90
4647;DHT22;2336;47.822;7.564;2022-08-21T01:55:13;16.20;99.90
4647;DHT22;2336;47.822;7.564;2022-08-21T01:57:42;16.20;99.90
4647;DHT22;2336;47.822;7.564;2022-08-21T02:00:12;16.20;99.90
4647;DHT22;2336;47.822;7.564;2022-08-21T02:02:39;16.20;99.90
4647;DHT22;2336;47.822;7.564;2022-08-21T02:05:08;16.20;99.90
4647;DHT22;2336;47.822;7.564;2022-08-21T02:07:36;16.20;99.90
4647;DHT22;2336;47.822;7.564;2022-08-21T02:10:05;16.20;99.90
4647;DHT22;2336;47.822;7.564;2022-08-21T02:12:32;16.30;99.90
4647;DHT22;2336;47.822;7.564;2022-08-21T02:15:01;16.30;99.90
4647;DHT22;2336;47.822;7.564;2022-08-21T02:17:37;16.30;99.90
4647;DHT22;2336;47.822;7.564;2022-08-21T02:20:04;16.40;99.90
4647;DHT22;2336;47.822;7.564;2022-08-21T02:22:31;16.50;99.90
4647;DHT22;2336;47.822;7.564;2022-08-21T02:24:58;16.50;99.90
4647;DHT22;2336;47.822;7.564;2022-08-21T02:27:25;16.50;99.90
4647;DHT22;2336;47.822;7.564;2022-08-21T02:29:52;16.50;99.90
4647;DHT22;2336;47.822;7.564;2022-08-21T02:32:20;16.50;99.90
4647;DHT22;2336;47.822;7.564;2022-08-21T02:34:47;16.40;99.90
4647;DHT22;2336;47.822;7.564;2022-08-21T02:37:14;16.40;99.90
4647;DHT22;2336;47.822;7.564;2022-08-21T02:39:40;16.30;99.90
4647;DHT22;2336;47.822;7.564;2022-08-21T02:42:07;16.30;99.90
4647;DHT22;2336;47.822;7.564;2022-08-21T02:44:34;16.30;99.90
4647;DHT22;2336;47.822;7.564;2022-08-21T02:47:00;16.20;99.90
4647;DHT22;2336;47.822;7.564;2022-08-21T02:49:29;16.30;99.90
4647;DHT22;2336;47.822;7.564;2022-08-21T02:51:55;16.30;99.90
4647;DHT22;2336;47.822;7.564;2022-08-21T02:54:22;16.30;99.90
4647;DHT22;2336;47.822;7.564;2022-08-21T02:56:49;16.30;99.90
4647;DHT22;2336;47.822;7.564;2022-08-21T02:59:15;16.30;99.90
4647;DHT22;2336;47.822;7.564;2022-08-21T03:01:42;16.30;99.90
4647;DHT22;2336;47.822;7.564;2022-08-21T03:04:09;16.20;99.90
4647;DHT22;2336;47.822;7.564;2022-08-21T03:06:37;16.10;99.90
4647;DHT22;2336;47.822;7.564;2022-08-21T03:09:04;16.00;99.90
4647;DHT22;2336;47.822;7.564;2022-08-21T03:11:30;15.90;99.90
4647;DHT22;2336;47.822;7.564;2022-08-21T03:13:57;15.90;99.90
4647;DHT22;2336;47.822;7.564;2022-08-21T03:16:24;15.80;99.90
4647;DHT22;2336;47.822;7.564;2022-08-21T03:18:50;15.80;99.90
4647;DHT22;2336;47.822;7.564;2022-08-21T03:21:18;15.80;99.90
4647;DHT22;2336;47.822;7.564;2022-08-21T03:23:46;15.80;99.90
4647;DHT22;2336;47.822;7.564;2022-08-21T03:26:13;15.80;99.90
4647;DHT22;2336;47.822;7.564;2022-08-21T03:28:40;15.70;99.90
4647;DHT22;2336;47.822;7.564;2022-08-21T03:31:06;15.60;99.90
4647;DHT22;2336;47.822;7.564;2022-08-21T03:33:34;15.60;99.90
4647;DHT22;2336;47.822;7.564;2022-08-21T03:36:04;15.50;99.90
4647;DHT22;2336;47.822;7.564;2022-08-21T03:38:32;15.50;99.90
4647;DHT22;2336;47.822;7.564;2022-08-21T03:41:01;15.40;99.90
4647;DHT22;2336;47.822;7.564;2022-08-21T03:43:28;15.40;99.90
4647;DHT22;2336;47.822;7.564;2022-08-21T03:45:55;15.30;99.90
4647;DHT22;2336;47.822;7.564;2022-08-21T03:48:22;15.30;99.90
4647;DHT22;2336;47.822;7.564;2022-08-21T03:50:52;15.30;99.90
4647;DHT22;2336;47.822;7.564;2022-08-21T03:53:19;15.20;99.90
4647;DHT22;2336;47.822;7.564;2022-08-21T03:55:47;15.20;99.90
4647;DHT22;2336;47.822;7.564;2022-08-21T03:58:17;15.30;99.90
4647;DHT22;2336;47.822;7.564;2022-08-21T04:00:44;15.30;99.90
4647;DHT22;2336;47.822;7.564;2022-08-21T04:03:11;15.20;99.90
4647;DHT22;2336;47.822;7.564;2022-08-21T04:05:38;15.20;99.90
4647;DHT22;2336;47.822;7.564;2022-08-21T04:08:05;15.10;99.90
4647;DHT22;2336;47.822;7.564;2022-08-21T04:10:37;15.10;99.90
4647;DHT22;2336;47.822;7.564;2022-08-21T04:13:06;15.10;99.90
4647;DHT22;2336;47.822;7.564;2022-08-21T04:15:34;15.10;99.90
4647;DHT22;2336;47.822;7.564;2022-08-21T04:18:03;15.10;99.90
4647;DHT22;2336;47.822;7.564;2022-08-21T04:20:31;15.10;99.90
4647;DHT22;2336;47.822;7.564;2022-08-21T04:22:58;15.00;99.90
4647;DHT22;2336;47.822;7.564;2022-08-21T04:25:25;15.00;99.90
4647;DHT22;2336;47.822;7.564;2022-08-21T04:27:52;15.00;99.90
4647;DHT22;2336;47.822;7.564;2022-08-21T04:30:19;15.10;99.90
4647;DHT22;2336;47.822;7.564;2022-08-21T04:32:49;15.10;99.90
4647;DHT22;2336;47.822;7.564;2022-08-21T04:35:18;15.00;99.90
4647;DHT22;2336;47.822;7.564;2022-08-21T04:37:45;15.10;99.90
4647;DHT22;2336;47.822;7.564;2022-08-21T04:40:14;15.10;99.90
4647;DHT22;2336;47.822;7.564;2022-08-21T04:42:43;15.10;99.90
4647;DHT22;2336;47.822;7.564;2022-08-21T04:45:16;15.10;99.90
4647;DHT22;2336;47.822;7.564;2022-08-21T04:47:47;15.10;99.90
4647;DHT22;2336;47.822;7.564;2022-08-21T04:50:14;15.00;99.90
4647;DHT22;2336;47.822;7.564;2022-08-21T04:52:41;15.00;99.90
4647;DHT22;2336;47.822;7.564;2022-08-21T04:55:08;15.00;99.90
4647;DHT22;2336;47.822;7.564;2022-08-21T04:57:36;15.00;99.90
4647;DHT22;2336;47.822;7.564;2022-08-21T05:00:05;15.00;99.90
4647;DHT22;2336;47.822;7.564;2022-08-21T05:02:33;15.00;99.90
4647;DHT22;2336;47.822;7.564;2022-08-21T05:05:01;15.00;99.90
4647;DHT22;2336;47.822;7.564;2022-08-21T05:07:30;15.00;99.90
4647;DHT22;2336;47.822;7.564;2022-08-21T05:09:58;15.00;99.90
4647;DHT22;2336;47.822;7.564;2022-08-21T05:12:26;15.00;99.90
4647;DHT22;2336;47.822;7.564;2022-08-21T05:14:53;15.00;99.90
4647;DHT22;2336;47.822;7.564;2022-08-21T05:17:19;15.00;99.90
4647;DHT22;2336;47.822;7.564;2022-08-21T05:19:46;15.00;99.90
4647;DHT22;2336;47.822;7.564;2022-08-21T05:22:20;15.10;99.90
4647;DHT22;2336;47.822;7.564;2022-08-21T05:24:47;15.10;99.90
4647;DHT22;2336;47.822;7.564;2022-08-21T05:27:14;15.10;99.90
4647;DHT22;2336;47.822;7.564;2022-08-21T05:29:41;15.20;99.90
4647;DHT22;2336;47.822;7.564;2022-08-21T05:32:09;15.20;99.90
4647;DHT22;2336;47.822;7.564;2022-08-21T05:34:37;15.30;99.90
4647;DHT22;2336;47.822;7.564;2022-08-21T05:37:04;15.30;99.90
4647;DHT22;2336;47.822;7.564;2022-08-21T05:39:32;15.40;99.90
4647;DHT22;2336;47.822;7.564;2022-08-21T05:41:58;15.50;99.90
4647;DHT22;2336;47.822;7.564;2022-08-21T05:44:25;15.60;99.90
4647;DHT22;2336;47.822;7.564;2022-08-21T05:46:52;15.60;99.90
4647;DHT22;2336;47.822;7.564;2022-08-21T05:49:19;15.70;99.90
4647;DHT22;2336;47.822;7.564;2022-08-21T05:51:45;15.70;99.90
4647;DHT22;2336;47.822;7.564;2022-08-21T05:54:12;15.80;99.90
4647;DHT22;2336;47.822;7.564;2022-08-21T05:56:40;15.90;99.90
4647;DHT22;2336;47.822;7.564;2022-08-21T05:59:10;15.90;99.90
4647;DHT22;2336;47.822;7.564;2022-08-21T06:01:38;15.80;99.90
4647;DHT22;2336;47.822;7.564;2022-08-21T06:04:05;15.90;99.90
4647;DHT22;2336;47.822;7.564;2022-08-21T06:06:32;15.90;99.90
4647;DHT22;2336;47.822;7.564;2022-08-21T06:08:59;16.00;99.90
4647;DHT22;2336;47.822;7.564;2022-08-21T06:11:26;16.10;99.90
4647;DHT22;2336;47.822;7.564;2022-08-21T06:13:54;16.20;99.90
4647;DHT22;2336;47.822;7.564;2022-08-21T06:16:20;16.20;99.90
4647;DHT22;2336;47.822;7.564;2022-08-21T06:18:48;16.30;99.90
4647;DHT22;2336;47.822;7.564;2022-08-21T06:21:15;16.40;99.90
4647;DHT22;2336;47.822;7.564;2022-08-21T06:23:43;16.50;99.90
4647;DHT22;2336;47.822;7.564;2022-08-21T06:26:12;16.50;99.90
4647;DHT22;2336;47.822;7.564;2022-08-21T06:28:40;16.60;99.90
4647;DHT22;2336;47.822;7.564;2022-08-21T06:31:13;16.60;99.90
4647;DHT22;2336;47.822;7.564;2022-08-21T06:33:41;16.70;99.90
4647;DHT22;2336;47.822;7.564;2022-08-21T06:36:08;16.80;99.90
4647;DHT22;2336;47.822;7.564;2022-08-21T06:38:35;16.80;99.90
4647;DHT22;2336;47.822;7.564;2022-08-21T06:41:01;16.90;99.90
4647;DHT22;2336;47.822;7.564;2022-08-21T06:43:28;17.00;99.90
4647;DHT22;2336;47.822;7.564;2022-08-21T06:45:55;17.10;99.90
4647;DHT22;2336;47.822;7.564;2022-08-21T06:48:23;17.10;99.90
4647;DHT22;2336;47.822;7.564;2022-08-21T06:50:50;17.10;99.90
4647;DHT22;2336;47.822;7.564;2022-08-21T06:53:19;17.10;99.90
4647;DHT22;2336;47.822;7.564;2022-08-21T06:55:48;17.20;99.90
4647;DHT22;2336;47.822;7.564;2022-08-21T06:58:15;17.20;99.90
4647;DHT22;2336;47.822;7.564;2022-08-21T07:00:44;17.10;99.90
4647;DHT22;2336;47.822;7.564;2022-08-21T07:03:17;17.20;99.90
4647;DHT22;2336;47.822;7.564;2022-08-21T07:05:45;17.20;99.90
4647;DHT22;2336;47.822;7.564;2022-08-21T07:08:12;17.30;99.90
4647;DHT22;2336;47.822;7.564;2022-08-21T07:10:39;17.40;99.90
4647;DHT22;2336;47.822;7.564;2022-08-21T07:13:06;17.40;99.90
4647;DHT22;2336;47.822;7.564;2022-08-21T07:15:32;17.50;99.90
4647;DHT22;2336;47.822;7.564;2022-08-21T07:17:59;17.60;99.90
4647;DHT22;2336;47.822;7.564;2022-08-21T07:20:27;17.60;99.90
4647;DHT22;2336;47.822;7.564;2022-08-21T07:22:56;17.60;99.90
4647;DHT22;2336;47.822;7.564;2022-08-21T07:25:23;17.60;99.90
4647;DHT22;2336;47.822;7.564;2022-08-21T07:27:50;17.70;99.90
4647;DHT22;2336;47.822;7.564;2022-08-21T07:30:17;17.70;99.90
4647;DHT22;2336;47.822;7.564;2022-08-21T07:32:44;17.80;99.90
4647;DHT22;2336;47.822;7.564;2022-08-21T07:35:11;17.90;99.90
4647;DHT22;2336;47.822;7.564;2022-08-21T07:37:38;18.00;99.90
4647;DHT22;2336;47.822;7.564;2022-08-21T07:40:07;18.10;99.90
4647;DHT22;2336;47.822;7.564;2022-08-21T07:42:34;18.10;99.90
4647;DHT22;2336;47.822;7.564;2022-08-21T07:45:06;18.20;99.90
4647;DHT22;2336;47.822;7.564;2022-08-21T07:47:33;18.30;99.90
4647;DHT22;2336;47.822;7.564;2022-08-21T07:50:00;18.40;99.90
4647;DHT22;2336;47.822;7.564;2022-08-21T07:52:27;18.50;99.90
4647;DHT22;2336;47.822;7.564;2022-08-21T07:54:53;18.60;99.90
4647;DHT22;2336;47.822;7.564;2022-08-21T07:57:22;18.70;99.90
4647;DHT22;2336;47.822;7.564;2022-08-21T07:59:48;18.80;99.90
4647;DHT22;2336;47.822;7.564;2022-08-21T08:02:22;18.90;99.90
4647;DHT22;2336;47.822;7.564;2022-08-21T08:04:49;19.00;99.90
4647;DHT22;2336;47.822;7.564;2022-08-21T08:07:16;19.10;99.90
4647;DHT22;2336;47.822;7.564;2022-08-21T08:09:43;19.10;99.90
4647;DHT22;2336;47.822;7.564;2022-08-21T08:12:09;19.20;99.90
4647;DHT22;2336;47.822;7.564;2022-08-21T08:14:38;19.30;99.90
4647;DHT22;2336;47.822;7.564;2022-08-21T08:17:05;19.50;99.90
4647;DHT22;2336;47.822;7.564;2022-08-21T08:19:31;19.70;99.90
4647;DHT22;2336;47.822;7.564;2022-08-21T08:21:58;20.00;99.90
4647;DHT22;2336;47.822;7.564;2022-08-21T08:24:25;20.20;99.90
4647;DHT22;2336;47.822;7.564;2022-08-21T08:26:52;20.20;99.90
4647;DHT22;2336;47.822;7.564;2022-08-21T08:29:19;20.30;99.90
4647;DHT22;2336;47.822;7.564;2022-08-21T08:31:47;20.30;99.90
4647;DHT22;2336;47.822;7.564;2022-08-21T08:34:14;20.30;99.90
4647;DHT22;2336;47.822;7.564;2022-08-21T08:36:41;20.30;99.90
4647;DHT22;2336;47.822;7.564;2022-08-21T08:39:08;20.30;99.90
4647;DHT22;2336;47.822;7.564;2022-08-21T08:41:36;20.30;99.90
4647;DHT22;2336;47.822;7.564;2022-08-21T08:44:05;20.40;99.90
4647;DHT22;2336;47.822;7.564;2022-08-21T08:46:35;20.40;99.90
4647;DHT22;2336;47.822;7.564;2022-08-21T08:49:11;20.40;99.90
4647;DHT22;2336;47.822;7.564;2022-08-21T08:51:43;20.40;99.90
4647;DHT22;2336;47.822;7.564;2022-08-21T08:54:15;20.50;99.90
4647;DHT22;2336;47.822;7.564;2022-08-21T08:56:44;20.60;99.90
4647;DHT22;2336;47.822;7.564;2022-08-21T08:59:15;20.70;99.90
4647;DHT22;2336;47.822;7.564;2022-08-21T09:01:44;20.80;99.90
4647;DHT22;2336;47.822;7.564;2022-08-21T09:04:13;20.90;99.90
4647;DHT22;2336;47.822;7.564;2022-08-21T09:06:57;21.10;99.90
4647;DHT22;2336;47.822;7.564;2022-08-21T09:09:38;21.20;99.90
4647;DHT22;2336;47.822;7.564;2022-08-21T09:12:14;21.30;99.90
4647;DHT22;2336;47.822;7.564;2022-08-21T09:14:55;21.40;99.90
4647;DHT22;2336;47.822;7.564;2022-08-21T09:17:39;21.40;99.90
4647;DHT22;2336;47.822;7.564;2022-08-21T09:20:19;21.50;99.90
4647;DHT22;2336;47.822;7.564;2022-08-21T09:22:58;21.50;99.90
4647;DHT22;2336;47.822;7.564;2022-08-21T09:25:30;21.50;99.90
4647;DHT22;2336;47.822;7.564;2022-08-21T09:27:57;21.60;99.90
4647;DHT22;2336;47.822;7.564;2022-08-21T09:30:28;21.60;99.90
4647;DHT22;2336;47.822;7.564;2022-08-21T09:32:56;21.70;99.90
4647;DHT22;2336;47.822;7.564;2022-08-21T09:35:24;21.70;99.90
4647;DHT22;2336;47.822;7.564;2022-08-21T09:37:54;21.80;99.90
4647;DHT22;2336;47.822;7.564;2022-08-21T09:40:30;21.80;99.90
4647;DHT22;2336;47.822;7.564;2022-08-21T09:43:03;21.80;99.90
4647;DHT22;2336;47.822;7.564;2022-08-21T09:45:31;21.90;99.90
4647;DHT22;2336;47.822;7.564;2022-08-21T09:48:09;22.00;99.90
4647;DHT22;2336;47.822;7.564;2022-08-21T09:50:37;22.10;99.90
4647;DHT22;2336;47.822;7.564;2022-08-21T09:53:13;22.20;99.90
4647;DHT22;2336;47.822;7.564;2022-08-21T09:55:49;22.30;99.90
4647;DHT22;2336;47.822;7.564;2022-08-21T09:58:39;22.40;99.90
4647;DHT22;2336;47.822;7.564;2022-08-21T10:01:13;22.40;99.90
4647;DHT22;2336;47.822;7.564;2022-08-21T10:03:40;22.50;99.90
4647;DHT22;2336;47.822;7.564;2022-08-21T10:06:09;22.60;99.90
4647;DHT22;2336;47.822;7.564;2022-08-21T10:08:39;22.60;99.90
4647;DHT22;2336;47.822;7.564;2022-08-21T10:11:09;22.60;99.90
4647;DHT22;2336;47.822;7.564;2022-08-21T10:13:50;22.70;99.90
4647;DHT22;2336;47.822;7.564;2022-08-21T10:16:27;22.80;99.90
4647;DHT22;2336;47.822;7.564;2022-08-21T10:19:05;22.90;99.90
4647;DHT22;2336;47.822;7.564;2022-08-21T10:21:42;23.00;99.90
4647;DHT22;2336;47.822;7.564;2022-08-21T10:24:18;23.00;99.90
4647;DHT22;2336;47.822;7.564;2022-08-21T10:27:13;23.10;99.90
4647;DHT22;2336;47.822;7.564;2022-08-21T10:29:47;23.20;99.90
4647;DHT22;2336;47.822;7.564;2022-08-21T10:32:27;23.30;99.90
4647;DHT22;2336;47.822;7.564;2022-08-21T10:35:02;23.30;99.90
4647;DHT22;2336;47.822;7.564;2022-08-21T10:37:47;23.40;99.90
4647;DHT22;2336;47.822;7.564;2022-08-21T10:40:22;23.30;99.90
4647;DHT22;2336;47.822;7.564;2022-08-21T10:43:00;23.50;99.90
4647;DHT22;2336;47.822;7.564;2022-08-21T10:45:39;23.70;99.90
4647;DHT22;2336;47.822;7.564;2022-08-21T10:48:16;23.80;99.90
4647;DHT22;2336;47.822;7.564;2022-08-21T10:50:50;23.90;99.90
4647;DHT22;2336;47.822;7.564;2022-08-21T10:53:32;24.10;99.90
4647;DHT22;2336;47.822;7.564;2022-08-21T10:56:10;24.00;99.90
4647;DHT22;2336;47.822;7.564;2022-08-21T10:58:44;24.10;99.90
4647;DHT22;2336;47.822;7.564;2022-08-21T11:01:15;24.10;99.90
4647;DHT22;2336;47.822;7.564;2022-08-21T11:03:44;24.00;99.90
4647;DHT22;2336;47.822;7.564;2022-08-21T11:06:15;24.00;99.90
4647;DHT22;2336;47.822;7.564;2022-08-21T11:08:49;24.00;99.90
4647;DHT22;2336;47.822;7.564;2022-08-21T11:11:22;24.20;99.90
4647;DHT22;2336;47.822;7.564;2022-08-21T11:13:55;24.00;99.90
4647;DHT22;2336;47.822;7.564;2022-08-21T11:16:25;24.10;99.90
4647;DHT22;2336;47.822;7.564;2022-08-21T11:19:04;24.20;99.90
4647;DHT22;2336;47.822;7.564;2022-08-21T11:21:38;24.20;99.90
4647;DHT22;2336;47.822;7.564;2022-08-21T11:24:29;24.20;99.90
4647;DHT22;2336;47.822;7.564;2022-08-21T11:27:01;24.40;99.90
4647;DHT22;2336;47.822;7.564;2022-08-21T11:29:32;24.50;99.90
4647;DHT22;2336;47.822;7.564;2022-08-21T11:32:07;24.50;99.90
4647;DHT22;2336;47.822;7.564;2022-08-21T11:34:46;24.50;99.90
4647;DHT22;2336;47.822;7.564;2022-08-21T11:37:20;24.50;99.90
4647;DHT22;2336;47.822;7.564;2022-08-21T11:40:03;24.70;99.90
4647;DHT22;2336;47.822;7.564;2022-08-21T11:42:35;24.90;99.90
4647;DHT22;2336;47.822;7.564;2022-08-21T11:45:14;24.60;99.90
4647;DHT22;2336;47.822;7.564;2022-08-21T11:47:53;24.50;99.90
4647;DHT22;2336;47.822;7.564;2022-08-21T11:50:24;24.60;99.90
4647;DHT22;2336;47.822;7.564;2022-08-21T11:52:56;24.70;99.90
4647;DHT22;2336;47.822;7.564;2022-08-21T11:55:29;24.70;99.90
4647;DHT22;2336;47.822;7.564;2022-08-21T11:58:03;24.80;99.90
4647;DHT22;2336;47.822;7.564;2022-08-21T12:00:36;24.90;99.80
4647;DHT22;2336;47.822;7.564;2022-08-21T12:03:09;25.10;99.90
4647;DHT22;2336;47.822;7.564;2022-08-21T12:05:40;25.30;99.30
4647;DHT22;2336;47.822;7.564;2022-08-21T12:08:12;25.20;98.80
4647;DHT22;2336;47.822;7.564;2022-08-21T12:10:45;25.20;98.70
4647;DHT22;2336;47.822;7.564;2022-08-21T12:13:23;25.20;99.00
4647;DHT22;2336;47.822;7.564;2022-08-21T12:15:50;25.10;98.10
4647;DHT22;2336;47.822;7.564;2022-08-21T12:18:28;25.10;97.50
4647;DHT22;2336;47.822;7.564;2022-08-21T12:21:02;25.30;97.90
4647;DHT22;2336;47.822;7.564;2022-08-21T12:23:31;25.40;97.50
4647;DHT22;2336;47.822;7.564;2022-08-21T12:26:03;25.60;97.00
4647;DHT22;2336;47.822;7.564;2022-08-21T12:28:36;25.70;97.70
4647;DHT22;2336;47.822;7.564;2022-08-21T12:31:03;25.80;95.70
4647;DHT22;2336;47.822;7.564;2022-08-21T12:33:32;25.80;95.60
4647;DHT22;2336;47.822;7.564;2022-08-21T12:36:07;25.70;95.30
4647;DHT22;2336;47.822;7.564;2022-08-21T12:38:43;25.60;95.40
4647;DHT22;2336;47.822;7.564;2022-08-21T12:41:21;25.80;94.90
4647;DHT22;2336;47.822;7.564;2022-08-21T12:43:51;25.80;93.70
4647;DHT22;2336;47.822;7.564;2022-08-21T12:46:35;26.00;95.30
4647;DHT22;2336;47.822;7.564;2022-08-21T12:49:07;25.90;93.20
4647;DHT22;2336;47.822;7.564;2022-08-21T12:51:48;25.80;93.70
4647;DHT22;2336;47.822;7.564;2022-08-21T12:54:24;26.00;93.20
4647;DHT22;2336;47.822;7.564;2022-08-21T12:57:02;26.20;92.80
4647;DHT22;2336;47.822;7.564;2022-08-21T12:59:30;26.30;93.20
4647;DHT22;2336;47.822;7.564;2022-08-21T13:02:00;26.40;92.50
4647;DHT22;2336;47.822;7.564;2022-08-21T13:04:35;26.50;91.80
4647;DHT22;2336;47.822;7.564;2022-08-21T13:07:06;26.40;90.70
4647;DHT22;2336;47.822;7.564;2022-08-21T13:09:40;26.50;90.50
4647;DHT22;2336;47.822;7.564;2022-08-21T13:12:10;26.40;89.80
4647;DHT22;2336;47.822;7.564;2022-08-21T13:14:39;26.20;89.60
4647;DHT22;2336;47.822;7.564;2022-08-21T13:17:09;26.20;88.40
4647;DHT22;2336;47.822;7.564;2022-08-21T13:19:36;26.30;88.90
4647;DHT22;2336;47.822;7.564;2022-08-21T13:22:11;26.40;90.40
4647;DHT22;2336;47.822;7.564;2022-08-21T13:24:38;26.50;88.90
4647;DHT22;2336;47.822;7.564;2022-08-21T13:27:21;26.40;85.80
4647;DHT22;2336;47.822;7.564;2022-08-21T13:29:48;26.30;86.20
4647;DHT22;2336;47.822;7.564;2022-08-21T13:32:22;26.40;85.50
4647;DHT22;2336;47.822;7.564;2022-08-21T13:34:52;26.40;83.80
4647;DHT22;2336;47.822;7.564;2022-08-21T13:37:19;26.50;83.90
4647;DHT22;2336;47.822;7.564;2022-08-21T13:39:49;26.60;82.90
4647;DHT22;2336;47.822;7.564;2022-08-21T13:42:18;26.70;83.50
4647;DHT22;2336;47.822;7.564;2022-08-21T13:44:47;26.80;82.90
4647;DHT22;2336;47.822;7.564;2022-08-21T13:47:16;26.90;84.50
4647;DHT22;2336;47.822;7.564;2022-08-21T13:49:45;27.10;82.70
4647;DHT22;2336;47.822;7.564;2022-08-21T13:52:18;26.90;81.40
4647;DHT22;2336;47.822;7.564;2022-08-21T13:54:52;26.70;81.20
4647;DHT22;2336;47.822;7.564;2022-08-21T13:57:26;26.60;82.20
4647;DHT22;2336;47.822;7.564;2022-08-21T13:59:53;26.50;81.70
4647;DHT22;2336;47.822;7.564;2022-08-21T14:02:38;26.70;80.20
4647;DHT22;2336;47.822;7.564;2022-08-21T14:05:06;26.70;78.60
4647;DHT22;2336;47.822;7.564;2022-08-21T14:07:36;26.70;80.40
4647;DHT22;2336;47.822;7.564;2022-08-21T14:10:04;26.70;79.70
4647;DHT22;2336;47.822;7.564;2022-08-21T14:12:41;26.80;80.00
4647;DHT22;2336;47.822;7.564;2022-08-21T14:15:12;26.80;79.60
4647;DHT22;2336;47.822;7.564;2022-08-21T14:17:40;26.90;81.60
4647;DHT22;2336;47.822;7.564;2022-08-21T14:20:09;26.90;78.90
4647;DHT22;2336;47.822;7.564;2022-08-21T14:22:38;26.80;80.70
4647;DHT22;2336;47.822;7.564;2022-08-21T14:25:08;26.90;80.20
4647;DHT22;2336;47.822;7.564;2022-08-21T14:27:41;27.00;81.50
4647;DHT22;2336;47.822;7.564;2022-08-21T14:30:12;27.00;83.10
4647;DHT22;2336;47.822;7.564;2022-08-21T14:32:41;27.20;80.30
4647;DHT22;2336;47.822;7.564;2022-08-21T14:35:08;27.10;75.50
4647;DHT22;2336;47.822;7.564;2022-08-21T14:37:35;27.00;78.60
4647;DHT22;2336;47.822;7.564;2022-08-21T14:40:04;27.00;79.40
4647;DHT22;2336;47.822;7.564;2022-08-21T14:42:31;27.00;77.80
4647;DHT22;2336;47.822;7.564;2022-08-21T14:45:02;26.80;76.10
4647;DHT22;2336;47.822;7.564;2022-08-21T14:47:28;26.90;77.10
4647;DHT22;2336;47.822;7.564;2022-08-21T14:49:55;26.90;77.30
4647;DHT22;2336;47.822;7.564;2022-08-21T14:52:22;26.90;76.60
4647;DHT22;2336;47.822;7.564;2022-08-21T14:54:49;26.90;75.30
4647;DHT22;2336;47.822;7.564;2022-08-21T14:57:16;26.80;76.70
4647;DHT22;2336;47.822;7.564;2022-08-21T14:59:42;26.80;74.40
4647;DHT22;2336;47.822;7.564;2022-08-21T15:02:11;26.90;73.70
4647;DHT22;2336;47.822;7.564;2022-08-21T15:04:38;27.00;76.00
4647;DHT22;2336;47.822;7.564;2022-08-21T15:07:04;26.90;78.10
4647;DHT22;2336;47.822;7.564;2022-08-21T15:09:31;26.90;78.00
4647;DHT22;2336;47.822;7.564;2022-08-21T15:12:00;26.80;78.80
4647;DHT22;2336;47.822;7.564;2022-08-21T15:14:30;26.80;76.90
4647;DHT22;2336;47.822;7.564;2022-08-21T15:16:57;26.80;76.60
4647;DHT22;2336;47.822;7.564;2022-08-21T15:19:26;26.80;76.50
4647;DHT22;2336;47.822;7.564;2022-08-21T15:21:54;26.90;76.80
4647;DHT22;2336;47.822;7.564;2022-08-21T15:24:21;27.00;74.80
4647;DHT22;2336;47.822;7.564;2022-08-21T15:26:49;26.90;70.30
4647;DHT22;2336;47.822;7.564;2022-08-21T15:29:15;26.90;69.40
4647;DHT22;2336;47.822;7.564;2022-08-21T15:31:51;26.90;70.30
4647;DHT22;2336;47.822;7.564;2022-08-21T15:34:18;26.80;68.60
4647;DHT22;2336;47.822;7.564;2022-08-21T15:36:46;26.70;68.40
4647;DHT22;2336;47.822;7.564;2022-08-21T15:39:13;26.60;68.60
4647;DHT22;2336;47.822;7.564;2022-08-21T15:41:40;26.60;70.50
4647;DHT22;2336;47.822;7.564;2022-08-21T15:44:09;26.60;68.80
4647;DHT22;2336;47.822;7.564;2022-08-21T15:46:38;26.60;68.50
4647;DHT22;2336;47.822;7.564;2022-08-21T15:49:05;26.60;69.30
4647;DHT22;2336;47.822;7.564;2022-08-21T15:51:32;26.70;69.30
4647;DHT22;2336;47.822;7.564;2022-08-21T15:54:00;26.80;68.40
4647;DHT22;2336;47.822;7.564;2022-08-21T15:56:32;26.80;68.40
4647;DHT22;2336;47.822;7.564;2022-08-21T15:59:02;26.80;68.20
4647;DHT22;2336;47.822;7.564;2022-08-21T16:01:30;26.80;66.60
4647;DHT22;2336;47.822;7.564;2022-08-21T16:03:57;26.80;66.60
4647;DHT22;2336;47.822;7.564;2022-08-21T16:06:24;26.80;65.60
4647;DHT22;2336;47.822;7.564;2022-08-21T16:08:51;26.90;65.00
4647;DHT22;2336;47.822;7.564;2022-08-21T16:11:19;27.00;66.90
4647;DHT22;2336;47.822;7.564;2022-08-21T16:13:46;26.90;65.60
4647;DHT22;2336;47.822;7.564;2022-08-21T16:16:16;27.00;67.10
4647;DHT22;2336;47.822;7.564;2022-08-21T16:18:44;27.00;66.70